createdAt,value
2022-08-05T00:00:43.759Z,16.8
2022-08-05T00:05:51.670Z,16.8
2022-08-05T00:10:58.850Z,16.86
2022-08-05T00:16:07.199Z,16.8
2022-08-05T00:21:13.841Z,16.74
2022-08-05T00:26:21.031Z,16.69
2022-08-05T00:31:28.861Z,16.61
2022-08-05T00:36:37.006Z,16.49
2022-08-05T00:41:43.257Z,16.46
2022-08-05T00:46:51.101Z,16.38
2022-08-05T00:51:58.937Z,16.39
2022-08-05T00:57:06.646Z,16.35
2022-08-05T01:02:14.636Z,16.34
2022-08-05T01:07:22.413Z,16.33
2022-08-05T01:12:29.305Z,16.32
2022-08-05T01:17:37.574Z,16.26
2022-08-05T01:22:44.649Z,16.2
2022-08-05T01:27:52.092Z,16.14
2022-08-05T01:33:00.154Z,16.16
2022-08-05T01:38:08.830Z,16.14
2022-08-05T01:43:16.058Z,16.08
2022-08-05T01:48:22.614Z,16.02
2022-08-05T01:53:30.876Z,15.99
2022-08-05T01:58:37.676Z,15.96
2022-08-05T02:03:44.860Z,15.92
2022-08-05T02:08:52.027Z,15.88
2022-08-05T02:13:58.616Z,15.86
2022-08-05T02:19:06.042Z,15.8
2022-08-05T02:24:17.952Z,15.72
2022-08-05T02:29:26.486Z,15.7
2022-08-05T02:34:34.396Z,15.62
2022-08-05T02:39:43.289Z,15.58
2022-08-05T02:44:50.771Z,15.56
2022-08-05T02:49:58.676Z,15.52
2022-08-05T02:55:06.708Z,15.49
2022-08-05T03:00:15.066Z,15.48
2022-08-05T03:05:22.804Z,15.44
2022-08-05T03:10:29.977Z,15.39
2022-08-05T03:15:37.885Z,15.34
2022-08-05T03:20:45.529Z,15.3
2022-08-05T03:25:54.008Z,15.28
2022-08-05T03:31:02.436Z,15.26
2022-08-05T03:36:10.398Z,15.29
2022-08-05T03:41:19.131Z,15.33
2022-08-05T03:46:26.203Z,15.34
2022-08-05T03:51:34.011Z,15.38
2022-08-05T03:56:41.830Z,15.42
2022-08-05T04:01:48.993Z,15.49
2022-08-05T04:06:57.497Z,15.71
2022-08-05T04:12:06.338Z,16.51
2022-08-05T04:17:14.806Z,17.43
2022-08-05T04:22:21.751Z,18.36
2022-08-05T04:27:29.938Z,19.38
2022-08-05T04:32:37.662Z,20.49
2022-08-05T04:37:45.820Z,21.61
2022-08-05T04:42:53.812Z,22.78
2022-08-05T04:48:00.849Z,23.46
2022-08-05T04:53:09.854Z,23.85
2022-08-05T04:58:17.440Z,24.32
2022-08-05T05:03:25.415Z,24.83
2022-08-05T05:08:33.768Z,25.11
2022-08-05T05:13:40.699Z,25.26
2022-08-05T05:18:48.474Z,25.62
2022-08-05T05:23:55.733Z,25.71
2022-08-05T05:29:04.734Z,25.56
2022-08-05T05:34:12.264Z,25.35
2022-08-05T05:39:19.392Z,25.43
2022-08-05T05:44:27.293Z,25.84
2022-08-05T05:49:34.968Z,26.14
2022-08-05T05:54:43.287Z,26.66
2022-08-05T05:59:50.619Z,26.98
2022-08-05T06:04:57.818Z,26.76
2022-08-05T06:10:08.093Z,26.97
2022-08-05T06:15:15.447Z,27.08
2022-08-05T06:20:23.764Z,27.06
2022-08-05T06:25:31.122Z,27.17
2022-08-05T06:30:39.910Z,27.03
2022-08-05T06:35:47.416Z,27.1
2022-08-05T06:40:53.978Z,27.17
2022-08-05T06:46:01.794Z,27.33
2022-08-05T06:51:10.802Z,27.49
2022-08-05T06:56:18.895Z,27.58
2022-08-05T07:01:26.649Z,27.94
2022-08-05T07:06:34.569Z,28.17
2022-08-05T07:11:42.800Z,28.51
2022-08-05T07:16:50.528Z,29.06
2022-08-05T07:21:57.973Z,29.68
2022-08-05T07:27:07.336Z,30.22
2022-08-05T07:32:15.753Z,31.86
2022-08-05T07:37:23.351Z,34.16
2022-08-05T07:42:31.128Z,36.72
2022-08-05T07:47:39.616Z,38.74
2022-08-05T07:52:47.219Z,40.09
2022-08-05T07:58:00.370Z,41.79
2022-08-05T08:03:08.311Z,43.1
2022-08-05T08:08:16.537Z,43.32
2022-08-05T08:13:25.275Z,43.68
2022-08-05T08:18:31.942Z,43.64
2022-08-05T08:23:39.743Z,43.64
2022-08-05T08:28:47.915Z,43.94
2022-08-05T08:33:55.441Z,44.46
2022-08-05T08:39:03.898Z,44.4
2022-08-05T08:44:11.710Z,44.72
2022-08-05T08:49:20.423Z,44.72
2022-08-05T08:54:28.161Z,44.64
2022-08-05T08:59:35.896Z,44.48
2022-08-05T09:04:43.618Z,44.84
2022-08-05T09:09:50.310Z,44.93
2022-08-05T09:14:59.290Z,45.66
2022-08-05T09:20:07.355Z,46.69
2022-08-05T09:21:38.573Z,47.21
2022-08-05T09:26:44.959Z,47.49
2022-08-05T09:31:53.115Z,47.88
2022-08-05T09:37:01.217Z,48.02
2022-08-05T09:42:09.088Z,48.61
2022-08-05T09:47:16.057Z,48.32
2022-08-05T09:52:23.928Z,49.17
2022-08-05T09:57:30.626Z,50.0
2022-08-05T10:02:38.306Z,49.9
2022-08-05T10:07:45.715Z,49.98
2022-08-05T10:12:53.842Z,50.4
2022-08-05T10:18:02.337Z,49.66
2022-08-05T10:23:10.166Z,49.94
2022-08-05T10:28:17.941Z,50.59
2022-08-05T10:33:26.221Z,50.1
2022-08-05T10:38:33.177Z,49.5
2022-08-05T10:43:41.159Z,49.5
2022-08-05T10:48:49.433Z,49.68
2022-08-05T10:53:56.043Z,50.24
2022-08-05T10:59:04.409Z,51.76
2022-08-05T11:04:12.328Z,51.1
2022-08-05T11:09:18.803Z,51.06
2022-08-05T11:14:25.499Z,51.43
2022-08-05T11:19:33.503Z,51.64
2022-08-05T11:24:41.048Z,51.32
2022-08-05T11:29:50.301Z,51.78
2022-08-05T11:34:59.189Z,51.48
2022-08-05T11:40:06.085Z,52.08
2022-08-05T11:45:14.027Z,48.34
2022-08-05T11:50:22.631Z,48.24
2022-08-05T11:55:30.716Z,48.06
2022-08-05T12:00:39.221Z,47.84
2022-08-05T12:05:46.203Z,44.29
2022-08-05T12:10:54.173Z,44.28
2022-08-05T12:16:02.309Z,42.48
2022-08-05T12:21:10.930Z,42.9
2022-08-05T12:26:17.920Z,42.52
2022-08-05T12:31:26.026Z,42.43
2022-08-05T12:36:33.431Z,42.33
2022-08-05T12:41:40.699Z,41.68
2022-08-05T12:46:48.083Z,41.25
2022-08-05T12:51:55.357Z,41.26
2022-08-05T12:57:02.937Z,41.26
2022-08-05T13:02:10.645Z,40.25
2022-08-05T13:07:17.972Z,40.65
2022-08-05T13:12:25.035Z,40.08
2022-08-05T13:17:31.734Z,40.2
2022-08-05T13:22:39.967Z,40.24
2022-08-05T13:27:46.133Z,40.08
2022-08-05T13:32:53.971Z,39.79
2022-08-05T13:38:02.065Z,40.38
2022-08-05T13:43:09.014Z,40.22
2022-08-05T13:48:17.203Z,40.04
2022-08-05T13:53:25.204Z,40.15
2022-08-05T13:58:31.920Z,40.01
2022-08-05T14:03:40.145Z,40.09
2022-08-05T14:08:49.492Z,40.1
2022-08-05T14:13:57.745Z,40.14
2022-08-05T14:19:06.730Z,39.94
2022-08-05T14:24:13.727Z,39.48
2022-08-05T14:29:21.335Z,39.88
2022-08-05T14:34:28.692Z,39.88
2022-08-05T14:39:36.800Z,40.52
2022-08-05T14:44:43.729Z,41.09
2022-08-05T14:49:51.062Z,41.72
2022-08-05T14:54:58.906Z,41.42
2022-08-05T15:00:06.682Z,42.59
2022-08-05T15:05:13.225Z,43.25
2022-08-05T15:10:21.020Z,43.96
2022-08-05T15:15:28.272Z,44.76
2022-08-05T15:20:36.124Z,45.7
2022-08-05T15:25:43.900Z,45.03
2022-08-05T15:30:50.458Z,41.84
2022-08-05T15:35:57.185Z,42.19
2022-08-05T15:41:04.844Z,43.64
2022-08-05T15:46:12.688Z,44.06
2022-08-05T15:51:18.595Z,40.69
2022-08-05T15:56:24.545Z,38.88
2022-08-05T16:01:32.088Z,37.76
2022-08-05T16:06:39.101Z,36.77
2022-08-05T16:11:46.775Z,36.33
2022-08-05T16:16:54.430Z,36.67
2022-08-05T16:22:02.719Z,36.65
2022-08-05T16:27:11.340Z,36.08
2022-08-05T16:32:18.092Z,35.44
2022-08-05T16:37:25.529Z,34.9
2022-08-05T16:42:33.444Z,34.61
2022-08-05T16:47:41.116Z,34.24
2022-08-05T16:52:47.837Z,33.92
2022-08-05T16:57:55.286Z,33.66
2022-08-05T17:03:02.790Z,33.16
2022-08-05T17:08:09.931Z,32.78
2022-08-05T17:13:17.029Z,32.47
2022-08-05T17:18:23.989Z,32.09
2022-08-05T17:23:31.645Z,31.7
2022-08-05T17:28:38.631Z,31.38
2022-08-05T17:33:46.394Z,31.14
2022-08-05T17:38:53.601Z,30.78
2022-08-05T17:44:00.852Z,30.47
2022-08-05T17:49:08.056Z,30.15
2022-08-05T17:54:15.893Z,29.86
2022-08-05T17:59:23.738Z,30.0
2022-08-05T18:04:30.938Z,29.92
2022-08-05T18:09:38.188Z,29.64
2022-08-05T18:15:23.801Z,29.55
2022-08-05T18:20:32.194Z,29.39
2022-08-05T18:25:40.567Z,29.46
2022-08-05T18:30:49.034Z,29.26
2022-08-05T18:35:56.599Z,29.16
2022-08-05T18:41:04.879Z,28.78
2022-08-05T18:46:19.091Z,28.46
2022-08-05T18:51:27.099Z,28.1
2022-08-05T18:56:35.350Z,27.81
2022-08-05T19:01:43.281Z,27.54
2022-08-05T19:06:51.494Z,27.26
2022-08-05T19:11:58.936Z,27.76
2022-08-05T19:17:06.754Z,27.74
2022-08-05T19:22:15.071Z,27.7
2022-08-05T19:27:22.504Z,28.06
2022-08-05T19:32:30.322Z,28.28
2022-08-05T19:37:38.328Z,28.3
2022-08-05T19:42:46.648Z,28.31
2022-08-05T19:56:24.695Z,28.1
2022-08-05T20:01:32.808Z,28.01
2022-08-05T20:06:39.623Z,27.8
2022-08-05T20:11:47.285Z,27.61
2022-08-05T20:16:54.645Z,27.47
2022-08-05T20:22:01.986Z,27.17
2022-08-05T20:27:09.634Z,26.9
2022-08-05T20:32:17.499Z,26.65
2022-08-05T20:37:25.537Z,26.47
2022-08-05T20:42:33.752Z,26.35
2022-08-05T20:47:42.731Z,26.48
2022-08-05T20:52:56.500Z,26.36
2022-08-05T20:58:04.430Z,26.31
2022-08-05T21:03:12.224Z,26.38
2022-08-05T21:08:19.424Z,26.21
2022-08-05T21:13:26.660Z,26.1
2022-08-05T21:18:35.605Z,26.1
2022-08-05T21:23:44.089Z,26.04
2022-08-05T21:28:51.415Z,25.89
2022-08-05T21:33:58.620Z,25.8
2022-08-05T21:39:08.064Z,25.78
2022-08-05T21:44:16.557Z,25.9
2022-08-05T21:49:24.091Z,25.97
2022-08-05T21:54:31.480Z,26.1
2022-08-05T21:59:38.218Z,25.94
2022-08-05T22:04:45.127Z,25.8
2022-08-05T22:09:51.834Z,25.8
2022-08-05T22:14:59.921Z,25.79
2022-08-05T22:20:07.291Z,25.66
2022-08-05T22:25:15.610Z,25.56
2022-08-05T22:30:21.692Z,25.46
2022-08-05T22:35:29.528Z,25.84
2022-08-05T22:40:37.271Z,25.93
2022-08-05T22:45:45.889Z,25.88
2022-08-05T22:50:54.868Z,25.76
2022-08-05T22:56:01.748Z,25.69
2022-08-05T23:01:08.719Z,25.58
2022-08-05T23:06:16.538Z,25.38
2022-08-05T23:11:24.564Z,25.28
2022-08-05T23:16:32.239Z,25.11
2022-08-05T23:21:39.000Z,24.92
2022-08-05T23:26:46.901Z,24.84
2022-08-05T23:31:53.211Z,24.94
2022-08-05T23:37:01.137Z,25.04
2022-08-05T23:42:09.357Z,25.02
2022-08-05T23:47:16.425Z,24.9
2022-08-05T23:52:22.952Z,24.79
2022-08-05T23:57:31.398Z,24.65
